createdAt,value
2022-08-17T00:02:26.201Z,22.53
2022-08-17T00:04:55.182Z,22.52
2022-08-17T00:07:22.405Z,22.47
2022-08-17T00:09:51.858Z,22.44
2022-08-17T00:12:43.015Z,22.42
2022-08-17T00:15:11.400Z,22.38
2022-08-17T00:17:38.474Z,22.33
2022-08-17T00:20:06.038Z,22.28
2022-08-17T00:22:36.370Z,22.24
2022-08-17T00:25:13.055Z,22.20
2022-08-17T00:27:40.429Z,22.18
2022-08-17T00:30:09.954Z,22.14
2022-08-17T00:33:15.572Z,22.11
2022-08-17T00:35:34.449Z,22.08
2022-08-17T00:38:00.990Z,22.04
2022-08-17T00:40:27.561Z,22.03
2022-08-17T00:43:20.688Z,21.99
2022-08-17T00:45:47.950Z,22.01
2022-08-17T00:48:29.846Z,22.00
2022-08-17T00:51:34.358Z,21.98
2022-08-17T00:54:12.731Z,21.97
2022-08-17T00:56:46.412Z,21.98
2022-08-17T00:59:17.522Z,21.97
2022-08-17T01:01:44.254Z,21.95
2022-08-17T01:04:12.494Z,21.96
2022-08-17T01:06:41.521Z,21.92
2022-08-17T01:09:09.374Z,21.91
2022-08-17T01:11:37.228Z,21.89
2022-08-17T01:14:03.940Z,21.85
2022-08-17T01:16:32.270Z,21.84
2022-08-17T01:19:01.966Z,21.83
2022-08-17T01:21:50.717Z,21.80
2022-08-17T01:24:17.536Z,21.75
2022-08-17T01:26:45.774Z,21.76
2022-08-17T01:29:13.389Z,21.77
2022-08-17T01:31:45.695Z,21.78
2022-08-17T01:34:14.430Z,21.74
2022-08-17T01:36:44.712Z,21.70
2022-08-17T01:39:43.561Z,21.69
2022-08-17T01:42:29.048Z,21.67
2022-08-17T01:44:58.107Z,21.63
2022-08-17T01:47:24.868Z,21.63
2022-08-17T01:49:51.443Z,21.61
2022-08-17T01:52:18.193Z,21.62
2022-08-17T01:54:47.386Z,21.61
2022-08-17T01:57:14.392Z,21.59
2022-08-17T01:59:41.008Z,21.62
2022-08-17T02:02:07.692Z,21.60
2022-08-17T02:04:35.075Z,21.61
2022-08-17T02:07:01.906Z,21.60
2022-08-17T02:09:30.122Z,21.57
2022-08-17T02:11:59.802Z,21.56
2022-08-17T02:14:46.469Z,21.53
2022-08-17T02:17:13.014Z,21.49
2022-08-17T02:19:40.454Z,21.48
2022-08-17T02:22:07.038Z,21.48
2022-08-17T02:25:00.251Z,21.49
2022-08-17T02:27:24.514Z,21.48
2022-08-17T02:29:51.127Z,21.46
2022-08-17T02:32:20.899Z,21.44
2022-08-17T02:34:55.733Z,21.41
2022-08-17T02:37:22.309Z,21.34
2022-08-17T02:39:49.008Z,21.30
2022-08-17T02:42:15.710Z,21.30
2022-08-17T02:44:42.351Z,21.33
2022-08-17T02:47:10.548Z,21.35
2022-08-17T02:49:37.934Z,21.37
2022-08-17T02:52:07.243Z,21.36
2022-08-17T02:54:39.207Z,21.39
2022-08-17T02:57:07.558Z,21.42
2022-08-17T02:59:34.123Z,21.44
2022-08-17T03:02:03.376Z,21.45
2022-08-17T03:04:30.913Z,21.46
2022-08-17T03:07:01.432Z,21.44
2022-08-17T03:09:27.966Z,21.42
2022-08-17T03:11:55.826Z,21.44
2022-08-17T03:14:26.024Z,21.47
2022-08-17T03:16:53.802Z,21.47
2022-08-17T03:19:20.898Z,21.47
2022-08-17T03:21:47.426Z,21.44
2022-08-17T03:24:22.342Z,21.44
2022-08-17T03:26:55.750Z,21.43
2022-08-17T03:29:22.328Z,21.43
2022-08-17T03:31:49.727Z,21.44
2022-08-17T03:34:17.142Z,21.44
2022-08-17T03:36:44.417Z,21.47
2022-08-17T03:39:11.154Z,21.49
2022-08-17T03:41:38.971Z,21.51
2022-08-17T03:44:05.638Z,21.53
2022-08-17T03:46:50.497Z,21.53
2022-08-17T03:49:35.531Z,21.56
2022-08-17T03:52:20.515Z,21.55
2022-08-17T03:55:05.754Z,21.56
2022-08-17T03:57:32.489Z,21.59
2022-08-17T03:59:59.856Z,21.60
2022-08-17T04:02:31.859Z,21.59
2022-08-17T04:04:59.433Z,21.58
2022-08-17T04:07:28.639Z,21.60
2022-08-17T04:09:55.438Z,21.60
2022-08-17T04:12:23.658Z,21.63
2022-08-17T04:14:52.909Z,21.67
2022-08-17T04:17:27.688Z,21.71
2022-08-17T04:19:55.490Z,21.71
2022-08-17T04:22:32.765Z,21.72
2022-08-17T04:25:17.078Z,21.73
2022-08-17T04:27:46.340Z,21.76
2022-08-17T04:30:13.569Z,21.76
2022-08-17T04:33:06.345Z,21.77
2022-08-17T04:35:49.448Z,21.78
2022-08-17T04:38:21.581Z,21.81
2022-08-17T04:41:11.679Z,21.81
2022-08-17T04:43:39.966Z,21.80
2022-08-17T04:46:12.525Z,21.82
2022-08-17T04:48:48.667Z,21.84
2022-08-17T04:51:22.293Z,21.85
2022-08-17T04:53:54.346Z,21.87
2022-08-17T04:56:23.470Z,21.88
2022-08-17T04:58:51.642Z,21.88
2022-08-17T05:01:23.131Z,21.89
2022-08-17T05:03:56.196Z,21.93
2022-08-17T05:06:23.483Z,21.94
2022-08-17T05:08:50.259Z,21.97
2022-08-17T05:11:17.250Z,21.96
2022-08-17T05:13:44.793Z,21.98
2022-08-17T05:16:11.685Z,22.00
2022-08-17T05:18:39.150Z,22.00
2022-08-17T05:21:06.711Z,22.03
2022-08-17T05:23:43.049Z,22.01
2022-08-17T05:26:25.778Z,22.03
2022-08-17T05:28:58.523Z,22.04
2022-08-17T05:31:26.798Z,22.04
2022-08-17T05:33:53.638Z,22.03
2022-08-17T05:36:41.862Z,22.01
2022-08-17T05:39:07.139Z,22.00
2022-08-17T05:41:33.678Z,21.98
2022-08-17T05:44:00.269Z,21.99
2022-08-17T05:46:39.270Z,22.01
2022-08-17T05:49:08.174Z,22.03
2022-08-17T05:51:56.593Z,22.04
2022-08-17T05:54:51.678Z,22.09
2022-08-17T05:57:47.618Z,22.15
2022-08-17T06:00:36.929Z,22.18
2022-08-17T06:03:11.439Z,22.24
2022-08-17T06:05:59.132Z,22.29
2022-08-17T06:08:44.429Z,22.33
2022-08-17T06:11:22.794Z,22.39
2022-08-17T06:14:09.317Z,22.48
2022-08-17T06:16:42.791Z,22.52
2022-08-17T06:19:24.422Z,22.54
2022-08-17T06:21:54.531Z,22.60
2022-08-17T06:24:24.292Z,22.65
2022-08-17T06:26:52.498Z,22.69
2022-08-17T06:29:41.927Z,22.78
2022-08-17T06:32:12.670Z,22.81
2022-08-17T06:34:40.692Z,22.82
2022-08-17T06:37:10.283Z,22.87
2022-08-17T06:40:07.454Z,22.94
2022-08-17T06:43:12.690Z,23.03
2022-08-17T06:45:49.330Z,23.12
2022-08-17T06:48:26.930Z,23.17
2022-08-17T06:51:00.075Z,23.19
2022-08-17T06:53:43.907Z,23.22
2022-08-17T06:56:13.994Z,23.25
2022-08-17T06:58:43.382Z,23.26
2022-08-17T07:01:14.989Z,23.27
2022-08-17T07:03:54.682Z,23.34
2022-08-17T07:06:24.550Z,23.40
2022-08-17T07:08:57.747Z,23.48
2022-08-17T07:11:45.296Z,23.50
2022-08-17T07:14:35.301Z,23.53
2022-08-17T07:17:12.076Z,23.59
2022-08-17T07:19:41.293Z,23.64
2022-08-17T07:22:21.921Z,23.67
2022-08-17T07:24:57.313Z,23.69
2022-08-17T07:27:33.008Z,23.74
2022-08-17T07:30:19.425Z,23.84
2022-08-17T07:32:57.855Z,23.92
2022-08-17T07:35:41.475Z,23.95
2022-08-17T07:38:27.711Z,23.98
2022-08-17T07:40:57.658Z,24.00
2022-08-17T07:43:31.674Z,24.04
2022-08-17T07:46:29.918Z,24.09
2022-08-17T07:49:03.558Z,24.21
2022-08-17T07:51:32.044Z,24.37
2022-08-17T07:54:13.967Z,24.52
2022-08-17T07:57:10.449Z,24.73
2022-08-17T07:59:41.263Z,24.92
2022-08-17T08:02:30.120Z,25.10
2022-08-17T08:05:06.576Z,25.25
2022-08-17T08:08:00.707Z,25.40
2022-08-17T08:10:38.084Z,25.57
2022-08-17T08:13:12.266Z,25.63
2022-08-17T08:15:54.764Z,25.63
2022-08-17T08:18:55.813Z,25.69
2022-08-17T08:21:59.059Z,25.77
2022-08-17T08:25:03.124Z,25.86
2022-08-17T08:27:29.809Z,25.96
2022-08-17T08:30:08.787Z,25.97
2022-08-17T08:32:38.319Z,25.89
2022-08-17T08:35:13.445Z,25.86
2022-08-17T08:37:58.020Z,25.77
2022-08-17T08:40:42.978Z,25.65
2022-08-17T08:43:12.644Z,25.56
2022-08-17T08:45:48.001Z,25.56
2022-08-17T08:48:55.666Z,25.55
2022-08-17T08:51:42.590Z,25.60
2022-08-17T08:54:26.675Z,25.69
2022-08-17T08:59:58.222Z,25.76
2022-08-17T09:02:46.782Z,25.74
2022-08-17T09:05:26.141Z,25.79
2022-08-17T09:08:05.523Z,25.88
2022-08-17T09:10:45.249Z,25.97
2022-08-17T09:13:14.860Z,26.10
2022-08-17T09:15:46.216Z,26.22
2022-08-17T09:19:00.417Z,26.32
2022-08-17T09:21:18.221Z,26.40
2022-08-17T09:24:12.871Z,26.44
2022-08-17T09:26:59.557Z,26.45
2022-08-17T09:29:35.183Z,26.53
2022-08-17T09:32:15.006Z,26.59
2022-08-17T09:34:53.605Z,26.58
2022-08-17T09:37:30.719Z,26.64
2022-08-17T09:39:57.260Z,26.77
2022-08-17T09:42:29.996Z,26.85
2022-08-17T09:45:09.767Z,26.94
2022-08-17T09:47:45.546Z,27.09
2022-08-17T09:50:17.285Z,27.27
2022-08-17T09:52:43.897Z,27.50
2022-08-17T09:55:10.517Z,27.71
2022-08-17T09:57:42.974Z,27.92
2022-08-17T10:00:19.066Z,28.18
2022-08-17T10:02:57.931Z,28.50
2022-08-17T10:05:56.819Z,28.90
2022-08-17T10:08:43.826Z,29.28
2022-08-17T10:11:51.745Z,29.38
2022-08-17T10:14:37.824Z,29.21
2022-08-17T10:17:24.046Z,29.01
2022-08-17T10:20:02.343Z,28.77
2022-08-17T10:23:13.557Z,28.43
2022-08-17T10:26:14.380Z,28.26
2022-08-17T10:29:28.992Z,28.23
2022-08-17T10:32:04.103Z,28.25
2022-08-17T10:34:49.338Z,28.24
2022-08-17T10:37:34.385Z,28.21
2022-08-17T10:40:03.774Z,28.13
2022-08-17T10:42:56.674Z,28.15
2022-08-17T10:45:29.513Z,28.23
2022-08-17T10:48:06.369Z,28.39
2022-08-17T10:50:48.097Z,28.50
2022-08-17T10:53:32.771Z,28.60
2022-08-17T10:56:14.333Z,28.75
2022-08-17T10:58:59.035Z,28.93
2022-08-17T11:01:43.862Z,29.10
2022-08-17T11:04:21.224Z,29.24
2022-08-17T11:07:23.046Z,29.40
2022-08-17T11:09:52.439Z,29.53
2022-08-17T11:12:47.697Z,29.60
2022-08-17T11:15:23.232Z,29.68
2022-08-17T11:18:01.558Z,29.73
2022-08-17T11:20:57.704Z,29.84
2022-08-17T11:23:45.484Z,29.84
2022-08-17T11:26:26.880Z,29.77
2022-08-17T11:29:01.435Z,29.76
2022-08-17T11:31:38.607Z,29.71
2022-08-17T11:34:21.630Z,29.70
2022-08-17T11:37:17.898Z,29.62
2022-08-17T11:39:55.245Z,29.56
2022-08-17T11:43:00.459Z,29.61
2022-08-17T11:45:31.675Z,29.73
2022-08-17T11:48:43.612Z,29.85
2022-08-17T11:51:33.421Z,29.89
2022-08-17T11:54:34.878Z,29.90
2022-08-17T11:57:26.333Z,29.93
2022-08-17T12:00:06.762Z,30.01
2022-08-17T12:02:38.826Z,30.15
2022-08-17T12:05:14.586Z,30.31
2022-08-17T12:07:43.119Z,30.42
2022-08-17T12:10:12.392Z,30.48
2022-08-17T12:12:44.097Z,30.53
2022-08-17T12:15:21.820Z,30.56
2022-08-17T12:17:54.556Z,30.59
2022-08-17T12:20:33.833Z,30.52
2022-08-17T12:23:40.978Z,30.38
2022-08-17T12:26:22.708Z,30.36
2022-08-17T12:28:57.386Z,30.42
2022-08-17T12:31:48.737Z,30.48
2022-08-17T12:34:40.606Z,30.54
2022-08-17T12:37:15.332Z,30.46
2022-08-17T12:39:52.542Z,30.38
2022-08-17T12:42:34.895Z,30.30
2022-08-17T12:45:01.650Z,30.28
2022-08-17T12:47:32.232Z,30.35
2022-08-17T12:50:28.795Z,30.48
2022-08-17T12:53:02.333Z,30.60
2022-08-17T12:55:38.016Z,30.71
2022-08-17T12:58:13.974Z,30.84
2022-08-17T13:00:48.762Z,30.94
2022-08-17T13:03:22.209Z,31.03
2022-08-17T13:05:57.556Z,31.03
2022-08-17T13:08:31.635Z,31.04
2022-08-17T13:11:02.058Z,31.11
2022-08-17T13:13:35.354Z,31.12
2022-08-17T13:16:12.756Z,31.11
2022-08-17T13:18:44.202Z,31.10
2022-08-17T13:21:19.126Z,31.07
2022-08-17T13:23:56.504Z,31.04
2022-08-17T13:26:29.657Z,31.00
2022-08-17T13:28:56.706Z,31.03
2022-08-17T13:31:37.476Z,30.98
2022-08-17T13:34:33.509Z,30.93
2022-08-17T13:37:26.887Z,30.88
2022-08-17T13:39:56.234Z,30.90
2022-08-17T13:42:48.121Z,30.95
2022-08-17T13:45:36.079Z,30.93
2022-08-17T13:48:34.045Z,30.83
2022-08-17T13:51:00.541Z,30.68
2022-08-17T13:53:35.984Z,30.56
2022-08-17T13:56:37.204Z,30.50
2022-08-17T13:59:01.568Z,30.42
2022-08-17T14:01:42.485Z,30.34
2022-08-17T14:04:15.355Z,30.25
2022-08-17T14:06:53.346Z,30.15
2022-08-17T14:09:27.305Z,30.07
2022-08-17T14:11:57.023Z,30.01
2022-08-17T14:14:27.527Z,29.90
2022-08-17T14:16:54.425Z,29.83
2022-08-17T14:19:24.502Z,29.77
2022-08-17T14:21:52.409Z,29.67
2022-08-17T14:24:24.178Z,29.57
2022-08-17T14:26:55.181Z,29.53
2022-08-17T14:29:23.427Z,29.55
2022-08-17T14:31:53.243Z,29.60
2022-08-17T14:34:21.383Z,29.65
2022-08-17T14:36:48.580Z,29.60
2022-08-17T14:39:16.769Z,29.55
2022-08-17T14:41:43.713Z,29.60
2022-08-17T14:44:13.431Z,29.65
2022-08-17T14:46:42.179Z,29.67
2022-08-17T14:49:12.348Z,29.75
2022-08-17T14:51:43.733Z,29.87
2022-08-17T14:54:33.353Z,29.92
2022-08-17T14:57:23.103Z,29.85
2022-08-17T14:59:55.260Z,29.68
2022-08-17T15:02:29.807Z,29.53
2022-08-17T15:05:05.109Z,29.39
2022-08-17T15:07:31.862Z,29.28
2022-08-17T15:10:01.625Z,29.16
2022-08-17T15:12:32.690Z,29.06
2022-08-17T15:15:01.218Z,28.94
2022-08-17T15:17:44.375Z,28.86
2022-08-17T15:20:18.715Z,28.77
2022-08-17T15:22:49.383Z,28.67
2022-08-17T15:25:16.205Z,28.64
2022-08-17T15:27:42.806Z,28.59
2022-08-17T15:30:10.558Z,28.56
2022-08-17T15:32:40.646Z,28.51
2022-08-17T15:35:11.902Z,28.48
2022-08-17T15:37:40.279Z,28.43
2022-08-17T15:40:08.831Z,28.37
2022-08-17T15:42:35.734Z,28.30
2022-08-17T15:45:09.703Z,28.26
2022-08-17T15:47:37.161Z,28.29
2022-08-17T15:50:06.400Z,28.46
2022-08-17T15:52:38.143Z,28.66
2022-08-17T15:55:06.258Z,28.81
2022-08-17T15:57:33.833Z,28.85
2022-08-17T16:00:00.469Z,28.84
2022-08-17T16:03:45.219Z,28.79
2022-08-17T16:05:24.015Z,28.73
2022-08-17T16:07:52.725Z,28.65
2022-08-17T16:10:19.753Z,28.55
2022-08-17T16:12:47.870Z,28.46
2022-08-17T16:15:14.838Z,28.33
2022-08-17T16:17:44.616Z,28.24
2022-08-17T16:20:20.638Z,28.15
2022-08-17T16:22:50.082Z,28.05
2022-08-17T16:25:38.265Z,27.97
2022-08-17T16:28:10.591Z,27.88
2022-08-17T16:30:38.283Z,27.82
2022-08-17T16:33:05.973Z,27.76
2022-08-17T16:35:33.713Z,27.74
2022-08-17T16:38:00.369Z,27.74
2022-08-17T16:40:29.202Z,27.72
2022-08-17T16:42:57.954Z,27.59
2022-08-17T16:45:36.983Z,27.33
2022-08-17T16:48:04.465Z,27.14
2022-08-17T16:50:32.291Z,26.99
2022-08-17T16:53:07.741Z,26.91
2022-08-17T16:55:37.980Z,26.86
2022-08-17T16:58:06.370Z,26.75
2022-08-17T17:00:33.829Z,26.72
2022-08-17T17:03:19.490Z,26.72
2022-08-17T17:06:07.341Z,26.68
2022-08-17T17:08:58.757Z,26.75
2022-08-17T17:11:33.744Z,26.82
2022-08-17T17:14:04.234Z,26.77
2022-08-17T17:16:57.142Z,26.74
2022-08-17T17:19:45.734Z,26.77
2022-08-17T17:22:19.146Z,26.78
2022-08-17T17:25:10.425Z,26.74
2022-08-17T17:28:01.322Z,26.72
2022-08-17T17:30:43.078Z,26.69
2022-08-17T17:33:32.831Z,26.64
2022-08-17T17:36:07.251Z,26.62
2022-08-17T17:38:49.975Z,26.59
2022-08-17T17:41:26.462Z,26.59
2022-08-17T17:44:02.893Z,26.54
2022-08-17T17:46:40.422Z,26.43
2022-08-17T17:49:08.362Z,26.33
2022-08-17T17:52:07.850Z,26.25
2022-08-17T17:54:44.479Z,26.17
2022-08-17T17:57:49.603Z,26.18
2022-08-17T18:00:45.805Z,26.16
2022-08-17T18:03:43.994Z,26.10
2022-08-17T18:06:45.479Z,26.11
2022-08-17T18:09:12.498Z,26.15
2022-08-17T18:12:19.777Z,26.13
2022-08-17T18:15:21.523Z,26.12
2022-08-17T18:18:31.796Z,26.07
2022-08-17T18:21:05.950Z,25.98
2022-08-17T18:23:33.401Z,25.89
2022-08-17T18:26:01.942Z,25.85
2022-08-17T18:28:39.769Z,25.83
2022-08-17T18:31:11.387Z,25.74
2022-08-17T18:33:41.341Z,25.63
2022-08-17T18:36:09.217Z,25.56
2022-08-17T18:38:38.918Z,25.49
2022-08-17T18:41:27.164Z,25.36
2022-08-17T18:44:04.464Z,25.20
2022-08-17T18:46:37.659Z,25.10
2022-08-17T18:49:24.146Z,25.06
2022-08-17T18:52:09.901Z,25.00
2022-08-17T18:54:37.389Z,24.97
2022-08-17T18:57:05.596Z,24.94
2022-08-17T18:59:32.071Z,24.94
2022-08-17T19:02:38.624Z,24.99
2022-08-17T19:05:11.756Z,24.98
2022-08-17T19:07:42.113Z,24.98
2022-08-17T19:10:46.183Z,24.94
2022-08-17T19:13:24.518Z,24.86
2022-08-17T19:16:12.095Z,24.72
2022-08-17T19:18:44.607Z,24.54
2022-08-17T19:21:25.596Z,24.38
2022-08-17T19:24:01.410Z,24.24
2022-08-17T19:26:54.896Z,24.15
2022-08-17T19:29:32.174Z,24.10
2022-08-17T19:32:01.430Z,24.10
2022-08-17T19:34:34.128Z,24.16
2022-08-17T19:37:12.244Z,24.24
2022-08-17T19:40:41.680Z,24.33
2022-08-17T19:43:06.790Z,24.38
2022-08-17T19:45:33.431Z,24.40
2022-08-17T19:48:11.686Z,24.41
2022-08-17T19:51:03.871Z,24.38
2022-08-17T19:54:04.889Z,24.35
2022-08-17T19:56:57.060Z,24.32
2022-08-17T19:59:36.138Z,24.31
2022-08-17T20:02:40.993Z,24.30
2022-08-17T20:05:23.958Z,24.32
2022-08-17T20:08:11.821Z,24.31
2022-08-17T20:10:59.591Z,24.29
2022-08-17T20:13:49.922Z,24.30
2022-08-17T20:16:19.961Z,24.30
2022-08-17T20:19:07.542Z,24.27
2022-08-17T20:21:34.073Z,24.25
2022-08-17T20:24:28.634Z,24.21
2022-08-17T20:27:12.845Z,24.16
2022-08-17T20:29:59.055Z,24.15
2022-08-17T20:32:33.005Z,24.14
2022-08-17T20:35:20.101Z,24.12
2022-08-17T20:37:58.821Z,24.15
2022-08-17T20:40:27.598Z,24.12
2022-08-17T20:42:54.821Z,24.09
2022-08-17T20:45:21.327Z,24.06
2022-08-17T20:48:18.465Z,24.03
2022-08-17T20:50:45.861Z,24.00
2022-08-17T20:53:32.838Z,23.97
2022-08-17T20:55:59.953Z,23.94
2022-08-17T20:58:30.982Z,23.89
2022-08-17T21:00:58.862Z,23.85
2022-08-17T21:03:47.934Z,23.82
2022-08-17T21:06:18.237Z,23.77
2022-08-17T21:08:57.684Z,23.76
2022-08-17T21:11:59.962Z,23.73
2022-08-17T21:14:36.529Z,23.67
2022-08-17T21:17:33.279Z,23.60
2022-08-17T21:20:11.014Z,23.54
2022-08-17T21:23:03.096Z,23.51
2022-08-17T21:25:41.823Z,23.48
2022-08-17T21:28:14.629Z,23.46
2022-08-17T21:30:41.087Z,23.32
2022-08-17T21:33:24.993Z,23.21
2022-08-17T21:36:16.049Z,23.11
2022-08-17T21:38:57.766Z,23.08
2022-08-17T21:41:45.518Z,23.08
2022-08-17T21:44:19.360Z,23.08
2022-08-17T21:47:13.005Z,23.12
2022-08-17T21:49:39.846Z,23.16
2022-08-17T21:52:15.394Z,23.18
2022-08-17T21:54:49.234Z,23.15
2022-08-17T21:57:21.827Z,23.09
2022-08-17T21:59:54.987Z,23.04
2022-08-17T22:02:25.483Z,22.99
2022-08-17T22:05:15.331Z,22.90
2022-08-17T22:07:51.051Z,22.78
2022-08-17T22:10:30.473Z,22.69
2022-08-17T22:13:17.683Z,22.64
2022-08-17T22:15:48.032Z,22.58
2022-08-17T22:18:26.888Z,22.54
2022-08-17T22:20:56.626Z,22.58
2022-08-17T22:23:46.314Z,22.60
2022-08-17T22:26:16.958Z,22.56
2022-08-17T22:28:49.250Z,22.56
2022-08-17T22:31:21.610Z,22.60
2022-08-17T22:34:07.634Z,22.62
2022-08-17T22:36:38.788Z,22.63
2022-08-17T22:39:10.929Z,22.62
2022-08-17T22:41:41.188Z,22.58
2022-08-17T22:44:14.066Z,22.55
2022-08-17T22:47:12.006Z,22.55
2022-08-17T22:50:00.231Z,22.58
2022-08-17T22:52:36.139Z,22.57
2022-08-17T22:55:32.270Z,22.52
2022-08-17T22:58:20.257Z,22.46
2022-08-17T23:00:50.406Z,22.42
2022-08-17T23:03:28.073Z,22.38
2022-08-17T23:06:09.631Z,22.35
2022-08-17T23:08:54.759Z,22.33
2022-08-17T23:11:36.533Z,22.31
2022-08-17T23:14:14.531Z,22.25
2022-08-17T23:16:44.983Z,22.20
2022-08-17T23:19:13.625Z,22.10
2022-08-17T23:21:40.464Z,22.06
2022-08-17T23:24:08.934Z,22.03
2022-08-17T23:26:39.330Z,22.01
2022-08-17T23:29:06.753Z,21.99
2022-08-17T23:31:34.809Z,21.95
2022-08-17T23:34:03.385Z,21.92
2022-08-17T23:36:31.634Z,21.91
2022-08-17T23:38:58.534Z,21.93
2022-08-17T23:41:35.246Z,21.96
2022-08-17T23:44:02.971Z,21.94
2022-08-17T23:46:29.512Z,21.94
2022-08-17T23:48:56.198Z,21.91
2022-08-17T23:51:34.680Z,21.87
2022-08-17T23:54:11.686Z,21.81
2022-08-17T23:56:46.591Z,21.69
2022-08-17T23:59:15.227Z,21.59
